createdAt,value
2023-05-09T00:00:25.242Z,0.21
2023-05-09T00:02:51.833Z,0.19
2023-05-09T00:05:18.294Z,0.16
2023-05-09T00:07:44.726Z,0.14
2023-05-09T00:10:11.255Z,0.11
2023-05-09T00:12:38.019Z,0.08
2023-05-09T00:15:05.481Z,0.05
2023-05-09T00:17:32.047Z,0.05
2023-05-09T00:19:58.774Z,0.05
2023-05-09T00:22:25.177Z,0.07
2023-05-09T00:24:52.141Z,0.10
2023-05-09T00:27:19.166Z,0.13
2023-05-09T00:29:45.639Z,0.15
2023-05-09T00:32:12.453Z,0.16
2023-05-09T00:34:39.116Z,0.14
2023-05-09T00:37:05.566Z,0.12
2023-05-09T00:39:32.122Z,0.12
2023-05-09T00:41:58.669Z,0.12
2023-05-09T00:44:25.134Z,0.10
2023-05-09T00:46:51.675Z,0.09
2023-05-09T00:49:18.121Z,0.10
2023-05-09T00:51:44.821Z,0.10
2023-05-09T00:54:11.363Z,0.12
2023-05-09T00:56:37.979Z,0.14
2023-05-09T00:59:04.526Z,0.17
2023-05-09T01:01:31.033Z,0.18
2023-05-09T01:03:58.338Z,0.20
2023-05-09T01:06:38.857Z,0.20
2023-05-09T01:09:14.381Z,0.20
2023-05-09T01:12:21.694Z,0.20
2023-05-09T01:14:51.217Z,0.19
2023-05-09T01:17:35.130Z,0.22
2023-05-09T01:20:04.971Z,0.30
2023-05-09T01:22:34.069Z,0.37
2023-05-09T01:25:25.363Z,0.41
2023-05-09T01:28:13.236Z,0.44
2023-05-09T01:30:42.441Z,0.45
2023-05-09T01:33:10.755Z,0.40
2023-05-09T01:35:39.137Z,0.34
2023-05-09T01:38:17.451Z,0.27
2023-05-09T01:40:48.880Z,0.22
2023-05-09T01:43:19.433Z,0.15
2023-05-09T01:45:47.620Z,0.11
2023-05-09T01:48:15.608Z,0.07
2023-05-09T01:50:44.410Z,0.01
2023-05-09T01:53:11.606Z,-0.06
2023-05-09T01:55:40.679Z,-0.13
2023-05-09T01:58:08.628Z,-0.18
2023-05-09T02:00:36.664Z,-0.19
2023-05-09T02:03:04.831Z,-0.24
2023-05-09T02:05:32.445Z,-0.29
2023-05-09T02:07:59.495Z,-0.29
2023-05-09T02:10:27.962Z,-0.30
2023-05-09T02:12:55.594Z,-0.35
2023-05-09T02:15:22.850Z,-0.39
2023-05-09T02:17:49.403Z,-0.42
2023-05-09T02:20:15.877Z,-0.44
2023-05-09T02:22:44.249Z,-0.45
2023-05-09T02:25:12.511Z,-0.47
2023-05-09T02:27:40.305Z,-0.49
2023-05-09T02:30:11.311Z,-0.50
2023-05-09T02:32:39.974Z,-0.51
2023-05-09T02:35:08.739Z,-0.52
2023-05-09T02:37:36.835Z,-0.52
2023-05-09T02:40:05.365Z,-0.50
2023-05-09T02:42:32.118Z,-0.51
2023-05-09T02:44:58.558Z,-0.53
2023-05-09T02:47:25.031Z,-0.58
2023-05-09T02:49:51.695Z,-0.62
2023-05-09T02:52:18.300Z,-0.64
2023-05-09T02:54:45.262Z,-0.64
2023-05-09T02:57:11.811Z,-0.65
2023-05-09T02:59:38.562Z,-0.66
2023-05-09T03:02:05.084Z,-0.68
2023-05-09T03:04:31.649Z,-0.70
2023-05-09T03:06:58.088Z,-0.72
2023-05-09T03:09:24.511Z,-0.72
2023-05-09T03:11:51.369Z,-0.72
2023-05-09T03:14:17.951Z,-0.73
2023-05-09T03:16:44.366Z,-0.72
2023-05-09T03:19:11.090Z,-0.71
2023-05-09T03:21:37.508Z,-0.70
2023-05-09T03:24:04.358Z,-0.68
2023-05-09T03:26:31.074Z,-0.67
2023-05-09T03:28:57.647Z,-0.69
2023-05-09T03:31:24.101Z,-0.70
2023-05-09T03:33:50.690Z,-0.68
2023-05-09T03:36:17.238Z,-0.62
2023-05-09T03:38:43.705Z,-0.57
2023-05-09T03:41:10.552Z,-0.49
2023-05-09T03:43:37.088Z,-0.38
2023-05-09T03:46:03.504Z,-0.18
2023-05-09T03:48:30.015Z,0.07
2023-05-09T03:50:56.586Z,0.36
2023-05-09T03:53:23.480Z,0.63
2023-05-09T03:55:50.451Z,0.94
2023-05-09T03:58:16.897Z,1.27
2023-05-09T04:00:43.412Z,1.62
2023-05-09T04:03:10.121Z,1.95
2023-05-09T04:05:37.141Z,2.24
2023-05-09T04:08:04.640Z,2.53
2023-05-09T04:10:31.542Z,2.81
2023-05-09T04:12:58.204Z,3.11
2023-05-09T04:15:24.817Z,3.47
2023-05-09T04:17:51.413Z,3.82
2023-05-09T04:20:17.980Z,4.08
2023-05-09T04:22:46.693Z,4.23
2023-05-09T04:25:13.798Z,4.27
2023-05-09T04:27:40.493Z,4.41
2023-05-09T04:30:07.826Z,4.61
2023-05-09T04:32:34.315Z,4.75
2023-05-09T04:35:00.801Z,4.90
2023-05-09T04:37:27.232Z,5.14
2023-05-09T04:39:53.699Z,5.45
2023-05-09T04:42:20.097Z,5.71
2023-05-09T04:44:46.833Z,5.92
2023-05-09T04:47:13.296Z,6.04
2023-05-09T04:49:40.210Z,6.10
2023-05-09T04:52:06.603Z,6.14
2023-05-09T04:54:33.118Z,6.19
2023-05-09T04:57:09.979Z,6.12
2023-05-09T04:59:40.899Z,5.97
2023-05-09T05:02:07.377Z,5.72
2023-05-09T05:04:34.064Z,5.70
2023-05-09T05:07:00.647Z,5.62
2023-05-09T05:09:27.161Z,5.42
2023-05-09T05:12:00.782Z,5.30
2023-05-09T05:14:29.511Z,5.23
2023-05-09T05:16:55.956Z,5.26
2023-05-09T05:19:22.480Z,5.35
2023-05-09T05:21:49.177Z,5.56
2023-05-09T05:24:15.645Z,5.86
2023-05-09T05:26:42.246Z,6.24
2023-05-09T05:29:08.697Z,6.53
2023-05-09T05:31:35.309Z,6.73
2023-05-09T05:34:01.888Z,6.82
2023-05-09T05:36:28.329Z,6.81
2023-05-09T05:38:54.747Z,7.07
2023-05-09T05:41:21.182Z,7.51
2023-05-09T05:43:47.660Z,7.81
2023-05-09T05:46:14.257Z,8.20
2023-05-09T05:48:40.851Z,8.61
2023-05-09T05:51:07.650Z,9.09
2023-05-09T05:53:34.306Z,9.79
2023-05-09T05:56:00.777Z,10.03
2023-05-09T05:58:27.484Z,10.17
2023-05-09T06:00:53.962Z,10.04
2023-05-09T06:03:20.474Z,9.93
2023-05-09T06:05:47.754Z,9.92
2023-05-09T06:08:14.401Z,10.03
2023-05-09T06:10:40.949Z,10.22
2023-05-09T06:13:07.453Z,10.39
2023-05-09T06:15:33.961Z,10.60
2023-05-09T06:18:00.510Z,11.24
2023-05-09T06:20:27.140Z,11.52
2023-05-09T06:22:53.641Z,11.50
2023-05-09T06:25:23.544Z,11.78
2023-05-09T06:27:50.228Z,12.17
2023-05-09T06:30:25.641Z,12.52
2023-05-09T06:32:54.472Z,12.72
2023-05-09T06:35:21.363Z,13.11
2023-05-09T06:37:48.883Z,13.36
2023-05-09T06:40:16.520Z,13.59
2023-05-09T06:42:43.220Z,14.06
2023-05-09T06:45:10.447Z,14.69
2023-05-09T06:47:37.055Z,14.88
2023-05-09T06:50:03.937Z,15.01
2023-05-09T06:52:30.587Z,14.84
2023-05-09T06:54:57.185Z,14.67
2023-05-09T06:57:23.949Z,14.69
2023-05-09T06:59:50.431Z,14.97
2023-05-09T07:02:17.026Z,15.40
2023-05-09T07:04:43.448Z,15.54
2023-05-09T07:07:09.922Z,15.45
2023-05-09T07:09:36.424Z,15.59
2023-05-09T07:12:02.963Z,15.39
2023-05-09T07:14:29.498Z,14.90
2023-05-09T07:17:05.199Z,14.42
2023-05-09T07:19:40.781Z,14.62
2023-05-09T07:22:07.346Z,15.10
2023-05-09T07:24:33.791Z,15.65
2023-05-09T07:27:03.271Z,15.81
2023-05-09T07:29:29.764Z,15.54
2023-05-09T07:31:56.737Z,15.56
2023-05-09T07:34:23.256Z,15.75
2023-05-09T07:36:49.731Z,15.92
2023-05-09T07:39:16.225Z,15.76
2023-05-09T07:41:43.236Z,15.73
2023-05-09T07:44:10.014Z,16.00
2023-05-09T07:46:37.214Z,15.94
2023-05-09T07:49:04.077Z,15.94
2023-05-09T07:51:30.531Z,15.49
2023-05-09T07:53:56.925Z,15.30
2023-05-09T07:56:23.578Z,15.12
2023-05-09T07:58:50.088Z,15.20
2023-05-09T08:01:16.900Z,15.27
2023-05-09T08:03:43.394Z,15.44
2023-05-09T08:06:09.948Z,15.68
2023-05-09T08:08:38.829Z,15.99
2023-05-09T08:11:05.588Z,16.09
2023-05-09T08:13:32.218Z,16.08
2023-05-09T08:15:59.017Z,15.99
2023-05-09T08:18:25.492Z,15.92
2023-05-09T08:20:52.068Z,15.61
2023-05-09T08:23:18.613Z,15.37
2023-05-09T08:25:45.078Z,15.27
2023-05-09T08:28:11.542Z,15.45
2023-05-09T08:30:38.072Z,15.65
2023-05-09T08:33:04.624Z,15.61
2023-05-09T08:35:31.100Z,15.68
2023-05-09T08:37:57.519Z,15.79
2023-05-09T08:40:24.017Z,15.71
2023-05-09T08:42:51.222Z,15.48
2023-05-09T08:45:25.532Z,15.65
2023-05-09T08:47:53.292Z,15.90
2023-05-09T08:50:21.371Z,15.32
2023-05-09T08:52:48.168Z,15.08
2023-05-09T08:55:15.225Z,14.92
2023-05-09T08:57:41.969Z,15.10
2023-05-09T09:00:09.727Z,15.42
2023-05-09T09:02:37.253Z,15.39
2023-05-09T09:05:04.194Z,15.51
2023-05-09T09:07:33.887Z,15.73
2023-05-09T09:10:03.206Z,16.16
2023-05-09T09:12:31.279Z,16.27
2023-05-09T09:15:07.374Z,16.45
2023-05-09T09:17:40.794Z,16.58
2023-05-09T09:20:11.254Z,16.62
2023-05-09T09:22:40.870Z,16.81
2023-05-09T09:25:07.493Z,16.80
2023-05-09T09:27:34.027Z,16.59
2023-05-09T09:30:08.090Z,16.35
2023-05-09T09:32:35.936Z,16.14
2023-05-09T09:35:10.661Z,16.51
2023-05-09T09:37:39.524Z,17.06
2023-05-09T09:40:10.521Z,17.20
2023-05-09T09:42:41.614Z,17.23
2023-05-09T09:45:16.944Z,16.87
2023-05-09T09:47:45.421Z,16.84
2023-05-09T09:50:14.513Z,16.60
2023-05-09T09:52:42.998Z,16.03
2023-05-09T09:55:09.626Z,15.80
2023-05-09T09:57:37.511Z,16.02
2023-05-09T10:00:06.085Z,16.26
2023-05-09T10:02:32.988Z,16.41
2023-05-09T10:05:09.069Z,16.47
2023-05-09T10:07:35.837Z,16.49
2023-05-09T10:10:03.139Z,16.51
2023-05-09T10:12:29.600Z,16.29
2023-05-09T10:14:56.499Z,16.23
2023-05-09T10:17:23.864Z,16.45
2023-05-09T10:19:51.334Z,16.96
2023-05-09T10:22:18.622Z,17.13
2023-05-09T10:24:57.566Z,17.26
2023-05-09T10:27:28.715Z,17.18
2023-05-09T10:30:08.656Z,17.11
2023-05-09T10:32:58.537Z,16.82
2023-05-09T10:35:29.894Z,16.23
2023-05-09T10:37:56.730Z,16.16
2023-05-09T10:40:23.386Z,16.53
2023-05-09T10:42:50.215Z,16.85
2023-05-09T10:45:16.947Z,17.10
2023-05-09T10:47:44.455Z,17.34
2023-05-09T10:50:12.597Z,17.48
2023-05-09T10:53:04.064Z,17.49
2023-05-09T10:55:57.546Z,17.28
2023-05-09T10:58:31.983Z,17.25
2023-05-09T11:01:01.129Z,17.31
2023-05-09T11:03:29.147Z,17.45
2023-05-09T11:05:57.642Z,17.45
2023-05-09T11:08:31.324Z,17.49
2023-05-09T11:11:04.141Z,17.53
2023-05-09T11:13:32.556Z,17.50
2023-05-09T11:16:01.835Z,17.54
2023-05-09T11:18:29.220Z,17.54
2023-05-09T11:20:56.746Z,17.36
2023-05-09T11:23:29.850Z,17.37
2023-05-09T11:28:34.127Z,17.87
2023-05-09T11:31:17.977Z,17.94
2023-05-09T11:33:48.862Z,17.83
2023-05-09T11:36:27.598Z,17.80
2023-05-09T11:39:07.915Z,17.64
2023-05-09T11:41:45.914Z,17.60
2023-05-09T11:44:16.842Z,17.46
2023-05-09T11:46:44.252Z,17.36
2023-05-09T11:49:11.996Z,17.09
2023-05-09T11:51:39.088Z,16.97
2023-05-09T11:54:06.941Z,16.96
2023-05-09T11:56:38.584Z,17.07
2023-05-09T11:59:05.499Z,17.08
2023-05-09T12:01:32.054Z,16.79
2023-05-09T12:03:59.014Z,16.77
2023-05-09T12:06:25.832Z,16.73
2023-05-09T12:08:54.811Z,17.07
2023-05-09T12:11:21.509Z,17.53
2023-05-09T12:13:49.430Z,17.73
2023-05-09T12:16:17.282Z,17.80
2023-05-09T12:18:45.392Z,18.11
2023-05-09T12:21:11.869Z,18.44
2023-05-09T12:23:38.314Z,18.56
2023-05-09T12:26:05.026Z,18.35
2023-05-09T12:28:31.642Z,18.33
2023-05-09T12:30:59.064Z,18.31
2023-05-09T12:33:26.482Z,18.13
2023-05-09T12:36:03.929Z,17.98
2023-05-09T12:38:30.646Z,17.88
2023-05-09T12:41:22.419Z,17.54
2023-05-09T12:43:58.320Z,17.50
2023-05-09T12:46:25.003Z,17.65
2023-05-09T12:48:52.056Z,17.78
2023-05-09T12:51:20.414Z,17.91
2023-05-09T12:53:47.165Z,18.16
2023-05-09T12:56:16.621Z,18.21
2023-05-09T12:58:54.653Z,18.38
2023-05-09T13:01:27.029Z,18.51
2023-05-09T13:04:01.710Z,18.57
2023-05-09T13:06:28.174Z,18.76
2023-05-09T13:09:12.901Z,18.92
2023-05-09T13:11:39.413Z,18.88
2023-05-09T13:14:06.222Z,18.97
2023-05-09T13:16:32.795Z,18.93
2023-05-09T13:18:59.416Z,18.86
2023-05-09T13:21:26.093Z,18.69
2023-05-09T13:23:52.658Z,18.57
2023-05-09T13:26:19.291Z,18.58
2023-05-09T13:28:45.736Z,18.62
2023-05-09T13:31:12.262Z,19.17
2023-05-09T13:33:38.824Z,19.94
2023-05-09T13:36:05.614Z,20.08
2023-05-09T13:38:32.168Z,20.04
2023-05-09T13:40:59.013Z,19.55
2023-05-09T13:43:26.497Z,19.03
2023-05-09T13:45:53.089Z,18.62
2023-05-09T13:48:19.662Z,18.39
2023-05-09T13:50:46.605Z,18.21
2023-05-09T13:53:13.367Z,18.17
2023-05-09T13:55:39.789Z,18.21
2023-05-09T13:58:06.255Z,18.18
2023-05-09T14:00:33.422Z,18.30
2023-05-09T14:02:59.951Z,18.66
2023-05-09T14:05:26.769Z,19.30
2023-05-09T14:07:53.475Z,20.46
2023-05-09T14:10:20.032Z,21.41
2023-05-09T14:12:46.681Z,21.30
2023-05-09T14:15:13.554Z,20.53
2023-05-09T14:17:39.995Z,20.01
2023-05-09T14:20:07.245Z,19.36
2023-05-09T14:22:33.795Z,18.77
2023-05-09T14:25:00.199Z,18.39
2023-05-09T14:27:26.663Z,17.90
2023-05-09T14:29:53.129Z,17.21
2023-05-09T14:32:19.607Z,16.93
2023-05-09T14:34:46.188Z,16.67
2023-05-09T14:37:15.607Z,16.55
2023-05-09T14:39:43.758Z,16.51
2023-05-09T14:42:10.418Z,16.59
2023-05-09T14:44:43.206Z,16.81
2023-05-09T14:47:09.968Z,18.03
2023-05-09T14:49:37.321Z,19.32
2023-05-09T14:52:03.883Z,19.68
2023-05-09T14:54:30.346Z,19.38
2023-05-09T14:56:56.780Z,19.01
2023-05-09T14:59:23.349Z,18.48
2023-05-09T15:01:49.758Z,18.11
2023-05-09T15:04:16.406Z,17.80
2023-05-09T15:06:43.062Z,17.61
2023-05-09T15:09:09.485Z,17.48
2023-05-09T15:11:46.760Z,17.29
2023-05-09T15:14:14.726Z,17.02
2023-05-09T15:16:41.516Z,16.83
2023-05-09T15:19:08.430Z,16.69
2023-05-09T15:21:34.996Z,16.59
2023-05-09T15:24:01.631Z,16.53
2023-05-09T15:26:28.060Z,16.54
2023-05-09T15:28:54.630Z,16.54
2023-05-09T15:31:21.065Z,16.57
2023-05-09T15:33:48.187Z,16.67
2023-05-09T15:36:14.665Z,16.83
2023-05-09T15:38:41.079Z,17.22
2023-05-09T15:41:07.538Z,17.72
2023-05-09T15:43:33.980Z,18.77
2023-05-09T15:46:00.766Z,19.31
2023-05-09T15:48:27.319Z,18.72
2023-05-09T15:50:53.763Z,18.20
2023-05-09T15:53:20.253Z,17.69
2023-05-09T15:55:46.736Z,17.22
2023-05-09T15:58:13.493Z,16.82
2023-05-09T16:00:39.923Z,16.56
2023-05-09T16:03:06.379Z,16.40
2023-05-09T16:05:33.143Z,16.28
2023-05-09T16:07:59.859Z,16.10
2023-05-09T16:10:26.380Z,15.89
2023-05-09T16:12:52.920Z,15.71
2023-05-09T16:15:19.532Z,15.53
2023-05-09T16:17:45.968Z,15.28
2023-05-09T16:20:13.291Z,15.04
2023-05-09T16:22:40.632Z,14.85
2023-05-09T16:25:07.675Z,14.73
2023-05-09T16:27:34.351Z,14.61
2023-05-09T16:30:01.135Z,14.52
2023-05-09T16:32:27.783Z,14.44
2023-05-09T16:34:54.234Z,14.45
2023-05-09T16:37:20.913Z,14.49
2023-05-09T16:39:47.366Z,14.57
2023-05-09T16:42:14.145Z,14.70
2023-05-09T16:44:40.563Z,14.76
2023-05-09T16:47:07.264Z,14.80
2023-05-09T16:49:33.890Z,14.85
2023-05-09T16:52:00.319Z,15.28
2023-05-09T16:54:26.902Z,16.30
2023-05-09T16:56:53.432Z,17.18
2023-05-09T16:59:19.877Z,17.27
2023-05-09T17:01:46.523Z,17.07
2023-05-09T17:04:13.398Z,16.82
2023-05-09T17:06:39.937Z,16.60
2023-05-09T17:09:06.403Z,16.42
2023-05-09T17:11:32.922Z,16.11
2023-05-09T17:14:02.386Z,15.87
2023-05-09T17:16:29.353Z,15.58
2023-05-09T17:18:56.083Z,15.41
2023-05-09T17:21:22.472Z,15.28
2023-05-09T17:23:48.963Z,15.20
2023-05-09T17:26:15.644Z,15.05
2023-05-09T17:28:42.415Z,14.79
2023-05-09T17:31:08.894Z,14.54
2023-05-09T17:33:35.505Z,14.31
2023-05-09T17:36:01.945Z,14.10
2023-05-09T17:38:28.502Z,13.92
2023-05-09T17:40:55.049Z,13.75
2023-05-09T17:43:21.742Z,13.60
2023-05-09T17:45:48.216Z,13.57
2023-05-09T17:48:14.751Z,13.57
2023-05-09T17:50:41.267Z,13.36
2023-05-09T17:53:07.896Z,13.16
2023-05-09T17:55:34.341Z,12.98
2023-05-09T17:58:00.897Z,12.82
2023-05-09T18:00:27.393Z,12.67
2023-05-09T18:02:54.057Z,12.52
2023-05-09T18:05:20.630Z,12.37
2023-05-09T18:07:47.122Z,12.25
2023-05-09T18:10:13.898Z,12.13
2023-05-09T18:12:40.590Z,12.03
2023-05-09T18:15:07.890Z,11.93
2023-05-09T18:17:34.338Z,11.84
2023-05-09T18:20:00.767Z,11.77
2023-05-09T18:22:27.165Z,11.69
2023-05-09T18:24:53.616Z,11.59
2023-05-09T18:27:20.041Z,11.49
2023-05-09T18:29:46.872Z,11.37
2023-05-09T18:32:13.638Z,11.24
2023-05-09T18:34:41.117Z,11.09
2023-05-09T18:37:07.594Z,10.96
2023-05-09T18:39:34.036Z,10.83
2023-05-09T18:42:00.435Z,10.71
2023-05-09T18:44:26.840Z,10.62
2023-05-09T18:46:53.371Z,10.51
2023-05-09T18:49:19.990Z,10.39
2023-05-09T18:51:46.901Z,10.25
2023-05-09T18:54:13.417Z,10.14
2023-05-09T18:56:39.862Z,10.04
2023-05-09T18:59:06.263Z,9.92
2023-05-09T19:01:32.773Z,9.81
2023-05-09T19:03:59.370Z,9.71
2023-05-09T19:06:25.803Z,9.60
2023-05-09T19:08:52.236Z,9.47
2023-05-09T19:11:19.022Z,9.35
2023-05-09T19:13:45.614Z,9.25
2023-05-09T19:16:12.321Z,9.16
2023-05-09T19:18:38.874Z,9.07
2023-05-09T19:21:05.352Z,8.96
2023-05-09T19:23:31.973Z,8.85
2023-05-09T19:25:58.625Z,8.77
2023-05-09T19:28:25.125Z,8.68
2023-05-09T19:30:51.779Z,8.60
2023-05-09T19:33:18.216Z,8.58
2023-05-09T19:35:45.181Z,8.56
2023-05-09T19:38:11.944Z,8.52
2023-05-09T19:40:39.506Z,8.50
2023-05-09T19:43:05.947Z,8.48
2023-05-09T19:45:32.466Z,8.47
2023-05-09T19:47:59.528Z,8.51
2023-05-09T19:50:26.201Z,8.51
2023-05-09T19:52:52.727Z,8.50
2023-05-09T19:55:19.201Z,8.51
2023-05-09T19:57:45.726Z,8.54
2023-05-09T20:00:13.034Z,8.56
2023-05-09T20:02:39.803Z,8.58
2023-05-09T20:05:06.922Z,8.60
2023-05-09T20:07:33.464Z,8.60
2023-05-09T20:10:00.014Z,8.56
2023-05-09T20:12:27.967Z,8.49
2023-05-09T20:14:56.940Z,8.40
2023-05-09T20:17:23.879Z,8.29
2023-05-09T20:19:50.506Z,8.14
2023-05-09T20:22:17.168Z,7.98
2023-05-09T20:24:44.027Z,7.84
2023-05-09T20:27:10.612Z,7.65
2023-05-09T20:29:37.157Z,7.46
2023-05-09T20:32:03.798Z,7.26
2023-05-09T20:34:30.545Z,7.08
2023-05-09T20:36:57.291Z,6.90
2023-05-09T20:39:23.857Z,6.71
2023-05-09T20:41:50.708Z,6.52
2023-05-09T20:44:18.130Z,6.38
2023-05-09T20:46:45.611Z,6.29
2023-05-09T20:49:12.176Z,6.23
2023-05-09T20:51:39.011Z,6.19
2023-05-09T20:54:05.599Z,6.10
2023-05-09T20:56:33.587Z,5.99
2023-05-09T20:59:00.107Z,5.87
2023-05-09T21:01:27.104Z,5.75
2023-05-09T21:03:53.624Z,5.63
2023-05-09T21:06:20.481Z,5.60
2023-05-09T21:08:47.042Z,5.57
2023-05-09T21:11:13.790Z,5.53
2023-05-09T21:13:40.483Z,5.45
2023-05-09T21:16:06.991Z,5.34
2023-05-09T21:18:33.600Z,5.23
2023-05-09T21:21:01.690Z,5.11
2023-05-09T21:23:28.782Z,4.96
2023-05-09T21:25:55.308Z,4.86
2023-05-09T21:28:21.835Z,4.78
2023-05-09T21:30:55.006Z,4.71
2023-05-09T21:33:21.661Z,4.72
2023-05-09T21:35:48.134Z,4.72
2023-05-09T21:38:14.586Z,4.70
2023-05-09T21:40:41.201Z,4.66
2023-05-09T21:43:07.994Z,4.56
2023-05-09T21:45:34.484Z,4.44
2023-05-09T21:48:01.167Z,4.35
2023-05-09T21:50:27.806Z,4.32
2023-05-09T21:52:54.258Z,4.31
2023-05-09T21:55:20.811Z,4.29
2023-05-09T21:57:47.368Z,4.23
2023-05-09T22:00:15.410Z,4.16
2023-05-09T22:02:42.246Z,4.07
2023-05-09T22:05:09.868Z,4.00
2023-05-09T22:07:36.643Z,3.93
2023-05-09T22:10:03.934Z,3.88
2023-05-09T22:12:30.749Z,3.85
2023-05-09T22:14:57.291Z,3.78
2023-05-09T22:17:24.301Z,3.68
2023-05-09T22:19:50.918Z,3.63
2023-05-09T22:22:17.596Z,3.61
2023-05-09T22:24:44.127Z,3.59
2023-05-09T22:27:11.400Z,3.53
2023-05-09T22:29:37.944Z,3.47
2023-05-09T22:32:04.950Z,3.45
2023-05-09T22:34:31.483Z,3.45
2023-05-09T22:36:58.378Z,3.45
2023-05-09T22:39:24.950Z,3.40
2023-05-09T22:41:51.398Z,3.36
2023-05-09T22:44:17.952Z,3.31
2023-05-09T22:46:44.799Z,3.26
2023-05-09T22:49:11.249Z,3.19
2023-05-09T22:51:37.800Z,3.16
2023-05-09T22:54:04.528Z,3.10
2023-05-09T22:56:31.031Z,3.02
2023-05-09T22:58:57.566Z,2.95
2023-05-09T23:01:24.402Z,2.87
2023-05-09T23:03:50.944Z,2.82
2023-05-09T23:06:17.419Z,2.80
2023-05-09T23:08:43.954Z,2.77
2023-05-09T23:11:10.402Z,2.74
2023-05-09T23:13:36.850Z,2.71
2023-05-09T23:16:03.900Z,2.65
2023-05-09T23:18:30.599Z,2.55
2023-05-09T23:20:57.016Z,2.45
2023-05-09T23:23:23.774Z,2.37
2023-05-09T23:25:50.232Z,2.31
2023-05-09T23:28:16.767Z,2.29
2023-05-09T23:30:43.233Z,2.28
2023-05-09T23:33:09.649Z,2.32
2023-05-09T23:35:36.141Z,2.40
2023-05-09T23:38:02.695Z,2.46
2023-05-09T23:40:29.568Z,2.48
2023-05-09T23:42:56.023Z,2.46
2023-05-09T23:45:22.856Z,2.44
2023-05-09T23:47:49.400Z,2.44
2023-05-09T23:50:16.193Z,2.45
2023-05-09T23:52:43.140Z,2.44
2023-05-09T23:55:09.633Z,2.39
2023-05-09T23:57:36.110Z,2.36
